createdAt,value
2023-02-03T00:01:55.319Z,2.10
2023-02-03T00:04:23.741Z,2.20
2023-02-03T00:06:52.364Z,2.20
2023-02-03T00:09:22.881Z,2.20
2023-02-03T00:11:51.008Z,2.20
2023-02-03T00:14:19.941Z,2.20
2023-02-03T00:16:48.286Z,2.30
2023-02-03T00:19:17.744Z,2.30
2023-02-03T00:21:46.146Z,2.30
2023-02-03T00:24:14.550Z,2.30
2023-02-03T00:26:44.746Z,2.50
2023-02-03T00:29:13.884Z,2.50
2023-02-03T00:31:42.860Z,2.50
2023-02-03T00:34:11.571Z,2.50
2023-02-03T00:36:43.037Z,2.50
2023-02-03T00:39:11.220Z,2.50
2023-02-03T00:41:40.011Z,2.60
2023-02-03T00:44:09.759Z,2.60
2023-02-03T00:46:38.600Z,2.60
2023-02-03T00:49:07.087Z,2.60
2023-02-03T00:51:36.700Z,2.60
2023-02-03T00:54:04.943Z,2.50
2023-02-03T00:56:33.245Z,2.50
2023-02-03T00:59:01.947Z,2.60
2023-02-03T01:01:34.092Z,2.70
2023-02-03T01:04:02.291Z,2.70
2023-02-03T01:06:30.469Z,2.70
2023-02-03T01:08:59.601Z,2.70
2023-02-03T01:11:28.743Z,2.80
2023-02-03T01:13:59.358Z,2.70
2023-02-03T01:16:28.652Z,2.80
2023-02-03T01:18:58.373Z,2.80
2023-02-03T01:21:27.404Z,2.70
2023-02-03T01:23:57.516Z,2.80
2023-02-03T01:26:25.900Z,2.80
2023-02-03T01:28:54.919Z,2.80
2023-02-03T01:31:25.357Z,2.80
2023-02-03T01:33:56.949Z,2.80
2023-02-03T01:36:28.555Z,2.80
2023-02-03T01:38:56.761Z,2.70
2023-02-03T01:41:29.034Z,2.70
2023-02-03T01:43:59.971Z,2.70
2023-02-03T01:46:32.473Z,2.70
2023-02-03T01:49:08.232Z,2.80
2023-02-03T01:51:39.961Z,2.90
2023-02-03T01:54:10.347Z,2.90
2023-02-03T01:56:42.839Z,2.90
2023-02-03T01:59:11.465Z,2.90
2023-02-03T02:01:39.850Z,2.90
2023-02-03T02:04:11.093Z,2.90
2023-02-03T02:06:40.563Z,2.90
2023-02-03T02:09:15.307Z,2.90
2023-02-03T02:11:43.768Z,2.90
2023-02-03T02:14:12.173Z,2.90
2023-02-03T02:16:48.438Z,2.80
2023-02-03T02:19:49.499Z,2.90
2023-02-03T02:22:29.743Z,2.90
2023-02-03T02:25:29.005Z,2.90
2023-02-03T02:28:40.016Z,2.90
2023-02-03T02:31:48.955Z,2.90
2023-02-03T02:34:26.840Z,2.90
2023-02-03T02:37:05.853Z,2.90
2023-02-03T02:39:40.976Z,2.90
2023-02-03T02:42:15.308Z,2.90
2023-02-03T02:44:51.029Z,2.90
2023-02-03T02:47:23.376Z,3.00
2023-02-03T02:49:59.768Z,2.90
2023-02-03T02:52:32.666Z,2.90
2023-02-03T02:55:11.974Z,2.90
2023-02-03T02:57:40.694Z,3.10
2023-02-03T03:00:10.327Z,3.00
2023-02-03T03:02:40.573Z,3.00
2023-02-03T03:05:11.745Z,3.00
2023-02-03T03:07:52.614Z,3.00
2023-02-03T03:10:24.705Z,3.10
2023-02-03T03:12:57.423Z,3.10
2023-02-03T03:15:30.513Z,3.10
2023-02-03T03:18:09.305Z,3.00
2023-02-03T03:20:42.962Z,3.10
2023-02-03T03:23:17.521Z,3.00
2023-02-03T03:25:50.251Z,3.00
2023-02-03T03:28:26.495Z,3.00
2023-02-03T03:30:55.261Z,3.00
2023-02-03T03:33:25.021Z,3.10
2023-02-03T03:35:58.392Z,3.10
2023-02-03T03:38:37.596Z,3.10
2023-02-03T03:41:11.173Z,3.00
2023-02-03T03:43:44.614Z,3.00
2023-02-03T03:46:15.906Z,3.00
2023-02-03T03:48:53.501Z,3.10
2023-02-03T03:51:27.594Z,3.10
2023-02-03T03:54:00.222Z,3.10
2023-02-03T03:56:34.164Z,3.10
2023-02-03T03:59:05.117Z,3.10
2023-02-03T04:01:34.190Z,3.10
2023-02-03T04:04:07.010Z,3.10
2023-02-03T04:06:35.554Z,3.10
2023-02-03T04:09:03.669Z,3.10
2023-02-03T04:11:49.447Z,3.10
2023-02-03T04:14:17.524Z,3.10
2023-02-03T04:16:46.033Z,3.10
2023-02-03T04:19:15.446Z,3.10
2023-02-03T04:21:43.721Z,3.10
2023-02-03T04:24:12.510Z,3.20
2023-02-03T04:26:42.260Z,3.10
2023-02-03T04:29:10.860Z,3.10
2023-02-03T04:31:39.539Z,3.10
2023-02-03T04:34:08.122Z,3.20
2023-02-03T04:36:37.502Z,3.20
2023-02-03T04:39:05.711Z,3.30
2023-02-03T04:41:33.713Z,3.30
2023-02-03T04:44:05.000Z,3.30
2023-02-03T04:46:34.652Z,3.20
2023-02-03T04:49:03.550Z,3.30
2023-02-03T04:51:32.612Z,3.20
2023-02-03T04:54:02.208Z,3.20
2023-02-03T04:56:30.298Z,3.20
2023-02-03T04:59:01.577Z,3.20
2023-02-03T05:01:30.516Z,3.20
2023-02-03T05:03:58.483Z,3.20
2023-02-03T05:06:28.758Z,3.20
2023-02-03T05:08:58.064Z,3.20
2023-02-03T05:11:27.772Z,3.20
2023-02-03T05:13:57.912Z,3.20
2023-02-03T05:16:27.743Z,3.20
2023-02-03T05:18:56.099Z,3.20
2023-02-03T05:21:26.075Z,3.20
2023-02-03T05:23:54.224Z,3.20
2023-02-03T05:26:22.358Z,3.20
2023-02-03T05:28:52.449Z,3.20
2023-02-03T05:31:23.398Z,3.20
2023-02-03T05:33:55.307Z,3.20
2023-02-03T05:36:23.548Z,3.20
2023-02-03T05:38:52.060Z,3.30
2023-02-03T05:41:38.647Z,3.30
2023-02-03T05:44:08.098Z,3.30
2023-02-03T05:46:36.380Z,3.30
2023-02-03T05:49:04.620Z,3.40
2023-02-03T05:51:32.745Z,3.30
2023-02-03T05:54:02.128Z,3.30
2023-02-03T05:56:30.198Z,3.30
2023-02-03T05:58:58.814Z,3.30
2023-02-03T06:01:29.362Z,3.30
2023-02-03T06:03:57.744Z,3.30
2023-02-03T06:06:27.249Z,3.30
2023-02-03T06:08:57.127Z,3.30
2023-02-03T06:11:25.449Z,3.30
2023-02-03T06:13:53.711Z,3.40
2023-02-03T06:16:22.657Z,3.40
2023-02-03T06:18:52.715Z,3.30
2023-02-03T06:21:21.653Z,3.30
2023-02-03T06:23:50.188Z,3.30
2023-02-03T06:26:19.206Z,3.20
2023-02-03T06:28:47.759Z,3.20
2023-02-03T06:31:16.549Z,3.30
2023-02-03T06:33:45.895Z,3.50
2023-02-03T06:36:16.463Z,3.40
2023-02-03T06:38:47.768Z,3.30
2023-02-03T06:41:16.355Z,3.30
2023-02-03T06:43:46.430Z,3.30
2023-02-03T06:46:15.516Z,3.30
2023-02-03T06:48:44.140Z,3.40
2023-02-03T06:51:12.249Z,3.50
2023-02-03T06:53:42.862Z,3.40
2023-02-03T06:56:11.121Z,3.40
2023-02-03T06:58:39.806Z,3.50
2023-02-03T07:01:08.173Z,3.50
2023-02-03T07:03:36.719Z,3.40
2023-02-03T07:06:07.117Z,3.40
2023-02-03T07:08:35.601Z,3.40
2023-02-03T07:11:06.311Z,3.50
2023-02-03T07:13:34.408Z,3.50
2023-02-03T07:16:03.839Z,3.50
2023-02-03T07:18:46.175Z,3.50
2023-02-03T07:21:16.227Z,3.50
2023-02-03T07:23:46.101Z,3.50
2023-02-03T07:26:19.390Z,3.60
2023-02-03T07:28:48.467Z,3.70
2023-02-03T07:31:17.319Z,3.70
2023-02-03T07:33:45.898Z,3.70
2023-02-03T07:36:16.816Z,3.80
2023-02-03T07:38:46.570Z,3.80
2023-02-03T07:41:18.363Z,3.80
2023-02-03T07:43:48.813Z,3.80
2023-02-03T07:46:17.423Z,3.80
2023-02-03T07:48:45.897Z,3.80
2023-02-03T07:51:14.378Z,3.90
2023-02-03T07:53:42.684Z,3.80
2023-02-03T07:56:12.008Z,3.80
2023-02-03T07:58:42.892Z,3.90
2023-02-03T08:01:13.974Z,3.90
2023-02-03T08:03:42.840Z,3.90
2023-02-03T08:06:11.091Z,3.90
2023-02-03T08:09:01.267Z,3.90
2023-02-03T08:11:29.718Z,3.90
2023-02-03T08:13:59.000Z,3.90
2023-02-03T08:16:27.697Z,3.90
2023-02-03T08:18:55.732Z,3.90
2023-02-03T08:21:26.647Z,4.00
2023-02-03T08:23:55.022Z,4.00
2023-02-03T08:26:23.778Z,4.00
2023-02-03T08:28:52.198Z,4.00
2023-02-03T08:31:22.138Z,4.10
2023-02-03T08:33:50.197Z,4.10
2023-02-03T08:36:18.144Z,4.10
2023-02-03T08:38:46.190Z,4.00
2023-02-03T08:41:17.990Z,4.10
2023-02-03T08:43:47.345Z,4.10
2023-02-03T08:46:15.421Z,4.10
2023-02-03T08:48:44.864Z,4.20
2023-02-03T08:51:13.695Z,4.20
2023-02-03T08:53:43.232Z,4.10
2023-02-03T08:56:13.541Z,4.20
2023-02-03T08:58:41.856Z,4.20
2023-02-03T09:01:11.180Z,4.30
2023-02-03T09:03:40.260Z,4.20
2023-02-03T09:06:13.678Z,4.20
2023-02-03T09:08:41.850Z,4.30
2023-02-03T09:11:10.835Z,4.30
2023-02-03T09:13:39.670Z,4.20
2023-02-03T09:16:08.698Z,4.30
2023-02-03T09:18:37.580Z,4.40
2023-02-03T09:21:08.596Z,4.30
2023-02-03T09:23:39.368Z,4.40
2023-02-03T09:26:10.094Z,4.30
2023-02-03T09:28:41.183Z,4.30
2023-02-03T09:31:11.920Z,4.30
2023-02-03T09:33:40.554Z,4.30
2023-02-03T09:36:09.407Z,4.30
2023-02-03T09:38:39.146Z,4.40
2023-02-03T09:41:20.110Z,4.40
2023-02-03T09:43:54.505Z,4.50
2023-02-03T09:46:26.576Z,4.50
2023-02-03T09:48:58.527Z,4.50
2023-02-03T09:51:30.990Z,4.50
2023-02-03T09:54:05.112Z,4.60
2023-02-03T09:56:35.908Z,4.60
2023-02-03T09:59:05.540Z,4.60
2023-02-03T10:01:48.789Z,4.60
2023-02-03T10:04:27.985Z,4.60
2023-02-03T10:07:07.687Z,4.60
2023-02-03T10:09:51.467Z,4.70
2023-02-03T10:16:05.637Z,4.60
2023-02-03T10:18:37.938Z,4.60
2023-02-03T10:21:13.183Z,4.50
2023-02-03T10:23:45.408Z,4.60
2023-02-03T10:26:21.421Z,4.60
2023-02-03T10:28:55.310Z,4.60
2023-02-03T10:31:25.305Z,4.70
2023-02-03T10:34:01.039Z,4.70
2023-02-03T10:36:40.444Z,4.70
2023-02-03T10:39:22.642Z,4.70
2023-02-03T10:41:54.346Z,4.70
2023-02-03T10:44:31.545Z,4.70
2023-02-03T10:47:00.143Z,4.70
2023-02-03T10:49:30.024Z,4.60
2023-02-03T10:52:04.820Z,4.60
2023-02-03T10:54:35.705Z,4.60
2023-02-03T10:57:11.337Z,4.70
2023-02-03T10:59:44.937Z,4.70
2023-02-03T11:02:25.864Z,4.70
2023-02-03T11:05:11.746Z,4.70
2023-02-03T11:07:40.080Z,4.70
2023-02-03T11:10:36.901Z,4.80
2023-02-03T11:13:19.765Z,4.80
2023-02-03T11:15:56.281Z,4.80
2023-02-03T11:18:35.778Z,4.80
2023-02-03T11:21:09.674Z,4.90
2023-02-03T11:23:38.558Z,5.10
2023-02-03T11:26:16.732Z,5.10
2023-02-03T11:28:48.858Z,5.20
2023-02-03T11:31:20.750Z,5.20
2023-02-03T11:33:52.240Z,5.30
2023-02-03T11:36:21.939Z,5.30
2023-02-03T11:38:50.338Z,5.30
2023-02-03T11:41:22.482Z,5.40
2023-02-03T11:43:58.442Z,5.40
2023-02-03T11:46:28.158Z,5.50
2023-02-03T11:49:06.437Z,5.50
2023-02-03T11:51:48.570Z,5.50
2023-02-03T11:54:28.825Z,5.50
2023-02-03T11:57:24.638Z,5.40
2023-02-03T12:00:12.493Z,5.50
2023-02-03T12:03:08.646Z,5.50
2023-02-03T12:05:59.631Z,5.50
2023-02-03T12:08:43.650Z,5.40
2023-02-03T12:11:23.081Z,5.40
2023-02-03T12:14:19.313Z,5.50
2023-02-03T12:17:07.118Z,5.50
2023-02-03T12:19:53.331Z,5.50
2023-02-03T12:22:30.808Z,5.40
2023-02-03T12:25:08.844Z,5.50
2023-02-03T12:27:47.984Z,5.50
2023-02-03T12:30:23.257Z,5.50
2023-02-03T12:32:58.352Z,5.40
2023-02-03T12:35:33.823Z,5.40
2023-02-03T12:38:06.585Z,5.40
2023-02-03T12:40:43.067Z,5.50
2023-02-03T12:43:27.099Z,5.50
2023-02-03T12:46:01.636Z,5.50
2023-02-03T12:48:45.984Z,5.50
2023-02-03T12:51:22.295Z,5.50
2023-02-03T12:53:56.704Z,5.40
2023-02-03T12:56:29.020Z,5.50
2023-02-03T12:59:02.756Z,5.50
2023-02-03T13:01:55.896Z,5.50
2023-02-03T13:04:35.547Z,5.40
2023-02-03T13:07:10.181Z,5.50
2023-02-03T13:09:44.709Z,5.40
2023-02-03T13:12:22.083Z,5.40
2023-02-03T13:14:55.979Z,5.50
2023-02-03T13:17:28.920Z,5.50
2023-02-03T13:20:06.449Z,5.50
2023-02-03T13:22:40.240Z,5.50
2023-02-03T13:25:31.171Z,5.40
2023-02-03T13:28:12.022Z,5.30
2023-02-03T13:31:05.673Z,5.40
2023-02-03T13:34:03.755Z,5.40
2023-02-03T13:37:07.406Z,5.30
2023-02-03T13:39:52.594Z,5.30
2023-02-03T13:42:27.583Z,5.30
2023-02-03T13:44:59.604Z,5.30
2023-02-03T13:47:30.299Z,5.30
2023-02-03T13:50:01.877Z,5.40
2023-02-03T13:52:36.123Z,5.40
2023-02-03T13:55:05.941Z,5.40
2023-02-03T13:57:38.216Z,5.40
2023-02-03T14:00:09.540Z,5.40
2023-02-03T14:02:46.402Z,5.30
2023-02-03T14:05:49.482Z,5.40
2023-02-03T14:08:49.610Z,5.40
2023-02-03T14:11:43.565Z,5.40
2023-02-03T14:14:44.103Z,5.50
2023-02-03T14:18:04.854Z,5.50
2023-02-03T14:21:07.966Z,5.40
2023-02-03T14:23:46.654Z,5.50
2023-02-03T14:26:29.596Z,5.40
2023-02-03T14:28:59.605Z,5.50
2023-02-03T14:31:28.888Z,5.50
2023-02-03T14:34:15.144Z,5.50
2023-02-03T14:36:54.927Z,5.50
2023-02-03T14:39:56.120Z,5.40
2023-02-03T14:43:04.797Z,5.60
2023-02-03T14:46:12.915Z,5.40
2023-02-03T14:49:16.537Z,5.50
2023-02-03T14:52:01.022Z,5.40
2023-02-03T14:54:57.959Z,5.40
2023-02-03T14:57:37.015Z,5.30
2023-02-03T15:00:10.704Z,5.40
2023-02-03T15:03:22.536Z,5.40
2023-02-03T15:05:52.709Z,5.40
2023-02-03T15:08:43.064Z,5.40
2023-02-03T15:11:26.884Z,5.30
2023-02-03T15:13:58.512Z,5.20
2023-02-03T15:16:27.188Z,5.40
2023-02-03T15:19:07.349Z,5.40
2023-02-03T15:21:42.798Z,5.30
2023-02-03T15:24:15.558Z,5.20
2023-02-03T15:26:47.725Z,5.20
2023-02-03T15:29:31.857Z,5.30
2023-02-03T15:32:06.358Z,5.20
2023-02-03T15:34:42.598Z,5.20
2023-02-03T15:37:18.871Z,5.10
2023-02-03T15:39:59.568Z,5.20
2023-02-03T15:42:32.957Z,5.20
2023-02-03T15:45:07.371Z,5.20
2023-02-03T15:47:40.044Z,5.20
2023-02-03T15:50:25.601Z,5.10
2023-02-03T15:52:55.934Z,5.10
2023-02-03T15:55:33.629Z,5.10
2023-02-03T15:58:01.987Z,5.10
2023-02-03T16:00:34.412Z,5.10
2023-02-03T16:03:06.337Z,5.10
2023-02-03T16:05:38.132Z,5.00
2023-02-03T16:08:39.876Z,5.10
2023-02-03T16:11:30.016Z,5.00
2023-02-03T16:14:01.840Z,4.90
2023-02-03T16:16:36.699Z,4.90
2023-02-03T16:19:12.618Z,4.90
2023-02-03T16:21:54.565Z,4.90
2023-02-03T16:27:33.768Z,4.90
2023-02-03T16:30:43.615Z,5.00
2023-02-03T16:33:35.701Z,5.10
2023-02-03T16:36:30.797Z,5.10
2023-02-03T16:39:22.493Z,5.10
2023-02-03T16:42:09.311Z,5.00
2023-02-03T16:44:55.073Z,5.00
2023-02-03T16:47:45.854Z,5.10
2023-02-03T16:50:38.648Z,5.10
2023-02-03T16:53:14.836Z,5.10
2023-02-03T16:55:44.821Z,5.10
2023-02-03T16:58:13.305Z,5.00
2023-02-03T17:00:44.910Z,5.00
2023-02-03T17:03:15.217Z,5.00
2023-02-03T17:05:46.767Z,5.10
2023-02-03T17:08:15.950Z,5.10
2023-02-03T17:10:49.273Z,5.10
2023-02-03T17:13:19.655Z,5.20
2023-02-03T17:15:49.975Z,5.20
2023-02-03T17:18:19.062Z,5.20
2023-02-03T17:20:48.193Z,5.20
2023-02-03T17:23:17.883Z,5.10
2023-02-03T17:25:50.046Z,5.10
2023-02-03T17:28:18.762Z,5.30
2023-02-03T17:30:46.861Z,5.30
2023-02-03T17:33:14.936Z,5.30
2023-02-03T17:35:45.793Z,5.20
2023-02-03T17:38:15.085Z,5.20
2023-02-03T17:54:42.997Z,5.20
2023-02-03T17:57:11.158Z,5.20
2023-02-03T17:59:43.812Z,5.20
2023-02-03T18:02:12.068Z,5.20
2023-02-03T18:04:42.189Z,5.30
2023-02-03T18:07:10.340Z,5.20
2023-02-03T18:09:38.636Z,5.30
2023-02-03T18:12:07.565Z,5.30
2023-02-03T18:14:35.995Z,5.20
2023-02-03T18:17:06.580Z,5.20
2023-02-03T18:19:34.782Z,5.30
2023-02-03T18:22:04.304Z,5.20
2023-02-03T18:24:33.149Z,5.20
2023-02-03T18:27:02.422Z,5.20
2023-02-03T18:29:30.658Z,5.20
2023-02-03T18:32:01.341Z,5.20
2023-02-03T18:34:32.773Z,5.20
2023-02-03T18:37:01.984Z,5.20
2023-02-03T18:39:30.131Z,5.10
2023-02-03T18:41:59.160Z,5.10
2023-02-03T18:44:27.760Z,5.10
2023-02-03T18:46:57.768Z,5.00
2023-02-03T18:49:26.278Z,5.00
2023-02-03T18:51:56.219Z,5.00
2023-02-03T18:54:24.906Z,4.90
2023-02-03T18:56:53.115Z,4.90
2023-02-03T18:59:22.356Z,5.00
2023-02-03T19:01:51.058Z,4.90
2023-02-03T19:04:19.120Z,4.90
2023-02-03T19:06:47.792Z,4.90
2023-02-03T19:09:20.586Z,4.90
2023-02-03T19:11:49.710Z,4.90
2023-02-03T19:14:18.289Z,4.90
2023-02-03T19:16:46.400Z,4.90
2023-02-03T19:19:15.059Z,4.90
2023-02-03T19:21:46.508Z,5.00
2023-02-03T19:24:15.377Z,5.00
2023-02-03T19:26:47.999Z,5.00
2023-02-03T19:29:16.514Z,5.10
2023-02-03T19:31:45.130Z,5.00
2023-02-03T19:34:15.892Z,4.90
2023-02-03T19:36:44.154Z,5.00
2023-02-03T19:39:12.909Z,4.90
2023-02-03T19:41:41.249Z,4.90
2023-02-03T19:44:11.248Z,4.90
2023-02-03T19:46:39.228Z,4.90
2023-02-03T19:49:11.049Z,4.80
2023-02-03T19:51:40.839Z,4.90
2023-02-03T19:54:11.162Z,4.80
2023-02-03T19:56:39.682Z,4.90
2023-02-03T19:59:07.946Z,4.90
2023-02-03T20:01:38.043Z,4.90
2023-02-03T20:04:07.466Z,4.80
2023-02-03T20:06:35.893Z,4.80
2023-02-03T20:09:06.304Z,4.80
2023-02-03T20:11:34.563Z,4.80
2023-02-03T20:14:02.968Z,4.90
2023-02-03T20:16:31.505Z,4.90
2023-02-03T20:19:04.189Z,4.90
2023-02-03T20:21:32.518Z,4.80
2023-02-03T20:24:00.511Z,4.80
2023-02-03T20:26:28.855Z,4.90
2023-02-03T20:28:57.229Z,4.90
2023-02-03T20:31:25.624Z,4.90
2023-02-03T20:33:53.886Z,4.90
2023-02-03T20:36:23.884Z,4.90
2023-02-03T20:38:52.402Z,4.90
2023-02-03T20:41:20.724Z,4.90
2023-02-03T20:46:37.163Z,4.90
2023-02-03T20:49:05.922Z,5.00
2023-02-03T20:51:36.340Z,4.90
2023-02-03T20:54:13.820Z,4.90
2023-02-03T20:56:42.873Z,4.90
2023-02-03T20:59:13.689Z,4.90
2023-02-03T21:01:41.729Z,4.90
2023-02-03T21:04:32.273Z,4.90
2023-02-03T21:07:02.338Z,5.00
2023-02-03T21:09:30.444Z,5.00
2023-02-03T21:11:59.309Z,5.00
2023-02-03T21:14:30.020Z,5.00
2023-02-03T21:16:59.613Z,5.00
2023-02-03T21:19:31.883Z,5.00
2023-02-03T21:22:15.914Z,5.00
2023-02-03T21:27:37.961Z,5.00
2023-02-03T21:30:28.398Z,5.00
2023-02-03T21:32:57.135Z,4.90
2023-02-03T21:35:28.510Z,4.90
2023-02-03T21:38:01.966Z,4.90
2023-02-03T21:40:33.104Z,4.90
2023-02-03T21:43:03.285Z,4.90
2023-02-03T21:45:37.452Z,4.80
2023-02-03T21:48:24.210Z,4.90
2023-02-03T21:50:53.193Z,4.90
2023-02-03T21:53:29.320Z,4.80
2023-02-03T21:55:57.360Z,4.90
2023-02-03T21:58:29.161Z,5.00
2023-02-03T22:00:59.789Z,4.90
2023-02-03T22:03:31.099Z,4.90
2023-02-03T22:06:17.820Z,4.90
2023-02-03T22:08:49.901Z,4.80
2023-02-03T22:11:20.348Z,4.80
2023-02-03T22:13:49.479Z,4.70
2023-02-03T22:16:18.687Z,4.70
2023-02-03T22:18:48.251Z,4.60
2023-02-03T22:21:17.209Z,4.60
2023-02-03T22:23:49.249Z,4.60
2023-02-03T22:26:17.604Z,4.60
2023-02-03T22:28:46.276Z,4.60
2023-02-03T22:31:14.526Z,4.60
2023-02-03T22:33:43.151Z,4.70
2023-02-03T22:36:12.837Z,4.70
2023-02-03T22:38:42.026Z,4.70
2023-02-03T22:41:13.066Z,4.70
2023-02-03T22:43:41.466Z,4.80
2023-02-03T22:46:09.664Z,4.80
2023-02-03T22:48:37.786Z,4.80
2023-02-03T22:51:07.085Z,4.80
2023-02-03T22:53:35.926Z,4.90
2023-02-03T22:56:04.539Z,4.90
2023-02-03T22:58:33.879Z,4.90
2023-02-03T23:01:02.425Z,4.90
2023-02-03T23:03:32.633Z,4.90
2023-02-03T23:06:01.010Z,4.80
2023-02-03T23:08:29.046Z,4.80
2023-02-03T23:10:57.638Z,4.80
2023-02-03T23:13:28.857Z,4.80
2023-02-03T23:15:59.817Z,4.70
2023-02-03T23:18:29.042Z,4.80
2023-02-03T23:20:58.148Z,4.80
2023-02-03T23:23:26.795Z,4.80
2023-02-03T23:25:54.995Z,4.70
2023-02-03T23:28:23.515Z,4.70
2023-02-03T23:30:51.597Z,4.70
2023-02-03T23:33:20.967Z,4.70
2023-02-03T23:35:50.520Z,4.70
2023-02-03T23:38:20.040Z,4.70
2023-02-03T23:40:49.226Z,4.60
2023-02-03T23:43:17.288Z,4.60
2023-02-03T23:45:45.510Z,4.60
2023-02-03T23:48:13.609Z,4.60
2023-02-03T23:50:45.388Z,4.60
2023-02-03T23:53:16.614Z,4.60
2023-02-03T23:55:46.956Z,4.60
2023-02-03T23:58:17.109Z,4.50
